AUA2339 LOWW-HEGN
Flight info
| Callsign | AUA2339 |
|---|---|
| Flight time | 3h 21m |
| Altitude | 35000 |
| Route | ARSIN DCT NALOX DCT OSDUK DCT SOMUN DCT REDVA UL616 KOGAT DCT TALAS DCT KEA DCT PAXIS Y707 OBRAN L321 REXUM M872 BOPOB DCT HGD |
| Aircraft | A320/M-SDE3FGHIRWY/LB1 |
Departure
| Time | 2026-04-26 12:53 |
|---|---|
| Airport | Vienna International Airport (LOWW) |
Arrival
| Time | 2026-04-26 16:14 |
|---|---|
| Airport | Hurghada International Airport (HEGN) |
| Time | Latitude | Longitude | Altitude | Speed | Heading |
|---|---|---|---|---|---|
| 2026-04-26 12:22 | 48.11634 | 16.56507 | 623 ft | 0 kts | 206° |
| 2026-04-26 12:47 | 48.11633 | 16.56507 | 610 ft | 0 kts | 206° |
| 2026-04-26 12:47 | 48.11611 | 16.56490 | 619 ft | 6 kts | 206° |
| 2026-04-26 12:47 | 48.11571 | 16.56430 | 610 ft | 10 kts | 251° |
| 2026-04-26 12:48 | 48.11523 | 16.56374 | 615 ft | 10 kts | 175° |
| 2026-04-26 12:48 | 48.11477 | 16.56448 | 619 ft | 10 kts | 115° |
| 2026-04-26 12:48 | 48.11451 | 16.56532 | 626 ft | 8 kts | 115° |
| 2026-04-26 12:48 | 48.11425 | 16.56611 | 620 ft | 10 kts | 116° |
| 2026-04-26 12:49 | 48.11387 | 16.56728 | 619 ft | 14 kts | 116° |
| 2026-04-26 12:49 | 48.11342 | 16.56867 | 619 ft | 16 kts | 116° |
| 2026-04-26 12:49 | 48.11291 | 16.57025 | 618 ft | 18 kts | 116° |
| 2026-04-26 12:49 | 48.11239 | 16.57184 | 623 ft | 12 kts | 116° |
| 2026-04-26 12:50 | 48.11208 | 16.57278 | 615 ft | 9 kts | 116° |
| 2026-04-26 12:50 | 48.11183 | 16.57355 | 618 ft | 7 kts | 116° |
| 2026-04-26 12:50 | 48.11161 | 16.57422 | 626 ft | 8 kts | 116° |
| 2026-04-26 12:50 | 48.11132 | 16.57507 | 623 ft | 9 kts | 121° |
| 2026-04-26 12:51 | 48.11080 | 16.57530 | 610 ft | 8 kts | 205° |
| 2026-04-26 12:51 | 48.11034 | 16.57495 | 610 ft | 8 kts | 206° |
| 2026-04-26 12:51 | 48.10977 | 16.57453 | 615 ft | 9 kts | 206° |
| 2026-04-26 12:51 | 48.10949 | 16.57423 | 626 ft | 4 kts | 257° |
| 2026-04-26 12:52 | 48.10953 | 16.57413 | 621 ft | 0 kts | 296° |
| 2026-04-26 12:52 | 48.10955 | 16.57408 | 622 ft | 7 kts | 296° |
| 2026-04-26 12:52 | 48.11092 | 16.56994 | 615 ft | 78 kts | 296° |
| 2026-04-26 12:52 | 48.11405 | 16.56030 | 619 ft | 131 kts | 296° |
| 2026-04-26 12:53 | 48.11863 | 16.54606 | 739 ft | 162 kts | 301° |
| 2026-04-26 12:53 | 48.12298 | 16.53085 | 1449 ft | 163 kts | 282° |
| 2026-04-26 12:53 | 48.12015 | 16.51406 | 2013 ft | 184 kts | 237° |
| 2026-04-26 12:53 | 48.10966 | 16.50090 | 2288 ft | 208 kts | 219° |
| 2026-04-26 12:54 | 48.09707 | 16.48794 | 2502 ft | 233 kts | 218° |
| 2026-04-26 12:54 | 48.08266 | 16.47410 | 2805 ft | 259 kts | 209° |
| 2026-04-26 12:54 | 48.06453 | 16.46875 | 3353 ft | 278 kts | 174° |
| 2026-04-26 12:54 | 48.04530 | 16.47415 | 4087 ft | 284 kts | 169° |
| 2026-04-26 12:55 | 48.02587 | 16.47991 | 4938 ft | 286 kts | 172° |
| 2026-04-26 12:55 | 48.00608 | 16.48481 | 5710 ft | 290 kts | 175° |
| 2026-04-26 12:55 | 47.98598 | 16.48921 | 6477 ft | 295 kts | 173° |
| 2026-04-26 12:55 | 47.96620 | 16.49937 | 7159 ft | 305 kts | 161° |
| 2026-04-26 12:56 | 47.94661 | 16.51184 | 7896 ft | 308 kts | 159° |
| 2026-04-26 12:56 | 47.92685 | 16.52476 | 8598 ft | 312 kts | 159° |
| 2026-04-26 12:56 | 47.90689 | 16.53782 | 9322 ft | 316 kts | 158° |
| 2026-04-26 12:56 | 47.88660 | 16.55104 | 10028 ft | 320 kts | 158° |
| 2026-04-26 12:57 | 47.86569 | 16.56456 | 10321 ft | 338 kts | 158° |
| 2026-04-26 12:57 | 47.84375 | 16.57911 | 10465 ft | 361 kts | 156° |
| 2026-04-26 12:57 | 47.82055 | 16.59625 | 10622 ft | 382 kts | 154° |
| 2026-04-26 12:58 | 47.77284 | 16.63452 | 11646 ft | 395 kts | 152° |
| 2026-04-26 12:58 | 47.74864 | 16.65426 | 12254 ft | 399 kts | 152° |
| 2026-04-26 12:58 | 47.72422 | 16.67402 | 12854 ft | 402 kts | 153° |
| 2026-04-26 12:58 | 47.69940 | 16.69382 | 13453 ft | 406 kts | 153° |
| 2026-04-26 12:59 | 47.67438 | 16.71355 | 14043 ft | 409 kts | 153° |
| 2026-04-26 12:59 | 47.64909 | 16.73335 | 14559 ft | 413 kts | 153° |
| 2026-04-26 12:59 | 47.62357 | 16.75325 | 15082 ft | 416 kts | 153° |
| 2026-04-26 12:59 | 47.59785 | 16.77329 | 15599 ft | 419 kts | 153° |
| 2026-04-26 13:00 | 47.57196 | 16.79345 | 16104 ft | 422 kts | 153° |
| 2026-04-26 13:00 | 47.54595 | 16.81368 | 16611 ft | 425 kts | 153° |
| 2026-04-26 13:00 | 47.51962 | 16.83412 | 17098 ft | 428 kts | 153° |
| 2026-04-26 13:00 | 47.49316 | 16.85465 | 17601 ft | 431 kts | 152° |
| 2026-04-26 13:01 | 47.46656 | 16.87528 | 18078 ft | 434 kts | 152° |
| 2026-04-26 13:01 | 47.43977 | 16.89609 | 18545 ft | 437 kts | 152° |
| 2026-04-26 13:01 | 47.41281 | 16.91704 | 18949 ft | 440 kts | 152° |
| 2026-04-26 13:01 | 47.38588 | 16.93794 | 19340 ft | 442 kts | 152° |
| 2026-04-26 13:02 | 47.35858 | 16.95904 | 19805 ft | 443 kts | 153° |
| 2026-04-26 13:02 | 47.33124 | 16.98013 | 20230 ft | 444 kts | 153° |
| 2026-04-26 13:02 | 47.30381 | 17.00127 | 20647 ft | 447 kts | 153° |
| 2026-04-26 13:02 | 47.27621 | 17.02252 | 21049 ft | 449 kts | 153° |
| 2026-04-26 13:03 | 47.24844 | 17.04386 | 21451 ft | 451 kts | 153° |
| 2026-04-26 13:03 | 47.22055 | 17.06526 | 21836 ft | 453 kts | 153° |
| 2026-04-26 13:03 | 47.19291 | 17.08648 | 22218 ft | 455 kts | 153° |
| 2026-04-26 13:03 | 47.16437 | 17.10838 | 22605 ft | 458 kts | 153° |
| 2026-04-26 13:04 | 47.13617 | 17.12999 | 22983 ft | 459 kts | 153° |
| 2026-04-26 13:04 | 47.10774 | 17.15173 | 23393 ft | 460 kts | 153° |
| 2026-04-26 13:04 | 47.07929 | 17.17349 | 23744 ft | 462 kts | 153° |
| 2026-04-26 13:04 | 47.05136 | 17.19481 | 24037 ft | 464 kts | 153° |
| 2026-04-26 13:05 | 47.02270 | 17.21662 | 24338 ft | 466 kts | 153° |
| 2026-04-26 13:05 | 46.99397 | 17.23846 | 24634 ft | 467 kts | 153° |
| 2026-04-26 13:05 | 46.96498 | 17.26049 | 24937 ft | 469 kts | 153° |
| 2026-04-26 13:05 | 46.93601 | 17.28247 | 25234 ft | 470 kts | 153° |
| 2026-04-26 13:06 | 46.90687 | 17.30456 | 25535 ft | 472 kts | 153° |
| 2026-04-26 13:06 | 46.87772 | 17.32666 | 25851 ft | 472 kts | 153° |
| 2026-04-26 13:06 | 46.84853 | 17.34879 | 26165 ft | 473 kts | 153° |
| 2026-04-26 13:06 | 46.81929 | 17.37094 | 26460 ft | 474 kts | 153° |
| 2026-04-26 13:07 | 46.78987 | 17.39318 | 26684 ft | 477 kts | 153° |
| 2026-04-26 13:07 | 46.76039 | 17.41545 | 26933 ft | 479 kts | 154° |
| 2026-04-26 13:07 | 46.73073 | 17.43779 | 27186 ft | 480 kts | 154° |
| 2026-04-26 13:07 | 46.70100 | 17.46010 | 27435 ft | 481 kts | 154° |
| 2026-04-26 13:08 | 46.67118 | 17.48242 | 27687 ft | 483 kts | 154° |
| 2026-04-26 13:08 | 46.64131 | 17.50475 | 27941 ft | 483 kts | 154° |
| 2026-04-26 13:08 | 46.61142 | 17.52712 | 28214 ft | 484 kts | 154° |
| 2026-04-26 13:08 | 46.58142 | 17.54956 | 28467 ft | 485 kts | 154° |
| 2026-04-26 13:09 | 46.55142 | 17.57199 | 28771 ft | 485 kts | 154° |
| 2026-04-26 13:09 | 46.52189 | 17.59408 | 29147 ft | 482 kts | 154° |
| 2026-04-26 13:09 | 46.49206 | 17.61637 | 29494 ft | 482 kts | 154° |
| 2026-04-26 13:09 | 46.46189 | 17.63886 | 29818 ft | 481 kts | 154° |
| 2026-04-26 13:10 | 46.43213 | 17.66100 | 30167 ft | 480 kts | 154° |
| 2026-04-26 13:10 | 46.40287 | 17.68271 | 30458 ft | 479 kts | 154° |
| 2026-04-26 13:10 | 46.37329 | 17.70462 | 30754 ft | 477 kts | 154° |
| 2026-04-26 13:10 | 46.34374 | 17.72651 | 31043 ft | 476 kts | 154° |
| 2026-04-26 13:11 | 46.31422 | 17.74834 | 31303 ft | 476 kts | 154° |
| 2026-04-26 13:11 | 46.28475 | 17.77009 | 31566 ft | 475 kts | 154° |
| 2026-04-26 13:11 | 46.25531 | 17.79176 | 31812 ft | 475 kts | 154° |
| 2026-04-26 13:11 | 46.22587 | 17.81347 | 32051 ft | 476 kts | 154° |
| 2026-04-26 13:12 | 46.19640 | 17.83524 | 32283 ft | 476 kts | 154° |
| 2026-04-26 13:12 | 46.16692 | 17.85700 | 32539 ft | 475 kts | 154° |
| 2026-04-26 13:12 | 46.13754 | 17.87865 | 32869 ft | 473 kts | 154° |
| 2026-04-26 13:12 | 46.10831 | 17.90013 | 33173 ft | 471 kts | 154° |
| 2026-04-26 13:13 | 46.07908 | 17.92151 | 33452 ft | 471 kts | 154° |
| 2026-04-26 13:13 | 46.04984 | 17.94281 | 33712 ft | 470 kts | 155° |
| 2026-04-26 13:13 | 46.02073 | 17.96402 | 33970 ft | 470 kts | 155° |
| 2026-04-26 13:13 | 45.99155 | 17.98528 | 34134 ft | 470 kts | 154° |
| 2026-04-26 13:14 | 45.93334 | 18.02771 | 34152 ft | 467 kts | 154° |
| 2026-04-26 13:14 | 45.87561 | 18.06971 | 34155 ft | 464 kts | 154° |
| 2026-04-26 13:15 | 45.81801 | 18.11148 | 34157 ft | 464 kts | 154° |
| 2026-04-26 13:15 | 45.77026 | 18.14650 | 34156 ft | 464 kts | 153° |
| 2026-04-26 13:16 | 45.70524 | 18.20006 | 34140 ft | 464 kts | 149° |
| 2026-04-26 13:16 | 45.65001 | 18.24780 | 34136 ft | 464 kts | 150° |
| 2026-04-26 13:17 | 45.56658 | 18.31780 | 34133 ft | 464 kts | 151° |
| 2026-04-26 13:18 | 45.48259 | 18.38676 | 34128 ft | 464 kts | 151° |
| 2026-04-26 13:19 | 45.39880 | 18.45586 | 34124 ft | 464 kts | 151° |
| 2026-04-26 13:19 | 45.34287 | 18.50181 | 34120 ft | 464 kts | 151° |
| 2026-04-26 13:20 | 45.28687 | 18.54770 | 34121 ft | 465 kts | 151° |
| 2026-04-26 13:20 | 45.23087 | 18.59348 | 34120 ft | 465 kts | 151° |
| 2026-04-26 13:21 | 45.17482 | 18.63915 | 34124 ft | 464 kts | 151° |
| 2026-04-26 13:21 | 45.11878 | 18.68478 | 34135 ft | 464 kts | 151° |
| 2026-04-26 13:22 | 45.06277 | 18.73023 | 34134 ft | 464 kts | 151° |
| 2026-04-26 13:22 | 45.00676 | 18.77556 | 34128 ft | 464 kts | 152° |
| 2026-04-26 13:23 | 44.95072 | 18.82088 | 34125 ft | 464 kts | 151° |
| 2026-04-26 13:23 | 44.89463 | 18.86614 | 34128 ft | 464 kts | 151° |
| 2026-04-26 13:24 | 44.83907 | 18.91092 | 34120 ft | 463 kts | 151° |
| 2026-04-26 13:24 | 44.78315 | 18.95582 | 34125 ft | 462 kts | 151° |
| 2026-04-26 13:25 | 44.72721 | 19.00059 | 34118 ft | 463 kts | 151° |
| 2026-04-26 13:25 | 44.68066 | 19.03781 | 34116 ft | 463 kts | 151° |
| 2026-04-26 13:26 | 44.62460 | 19.08253 | 34106 ft | 464 kts | 151° |
| 2026-04-26 13:26 | 44.56903 | 19.12859 | 34112 ft | 465 kts | 148° |
| 2026-04-26 13:27 | 44.51577 | 19.18006 | 34111 ft | 465 kts | 144° |
| 2026-04-26 13:27 | 44.46318 | 19.23304 | 34104 ft | 466 kts | 145° |
| 2026-04-26 13:28 | 44.40995 | 19.28508 | 34094 ft | 467 kts | 146° |
| 2026-04-26 13:28 | 44.35624 | 19.33622 | 34114 ft | 467 kts | 146° |
| 2026-04-26 13:29 | 44.30247 | 19.38720 | 34108 ft | 467 kts | 146° |
| 2026-04-26 13:29 | 44.24872 | 19.43837 | 34105 ft | 467 kts | 146° |
| 2026-04-26 13:30 | 44.19505 | 19.48959 | 34105 ft | 468 kts | 146° |
| 2026-04-26 13:30 | 44.14129 | 19.54069 | 34104 ft | 468 kts | 146° |
| 2026-04-26 13:31 | 44.08739 | 19.59169 | 34111 ft | 468 kts | 146° |
| 2026-04-26 13:31 | 44.03379 | 19.64229 | 34103 ft | 470 kts | 146° |
| 2026-04-26 13:32 | 43.97967 | 19.69332 | 34102 ft | 470 kts | 146° |
| 2026-04-26 13:32 | 43.92549 | 19.74434 | 34108 ft | 470 kts | 146° |
| 2026-04-26 13:33 | 43.87129 | 19.79526 | 34112 ft | 471 kts | 146° |
| 2026-04-26 13:33 | 43.81704 | 19.84602 | 34118 ft | 470 kts | 147° |
| 2026-04-26 13:34 | 43.76281 | 19.89676 | 34099 ft | 470 kts | 147° |
| 2026-04-26 13:34 | 43.70856 | 19.94737 | 34101 ft | 471 kts | 147° |
| 2026-04-26 13:35 | 43.65417 | 19.99789 | 34101 ft | 471 kts | 147° |
| 2026-04-26 13:35 | 43.59981 | 20.04839 | 34100 ft | 471 kts | 147° |
| 2026-04-26 13:36 | 43.54656 | 20.09772 | 34095 ft | 472 kts | 147° |
| 2026-04-26 13:36 | 43.49220 | 20.14792 | 34098 ft | 473 kts | 147° |
| 2026-04-26 13:37 | 43.43744 | 20.19839 | 34096 ft | 473 kts | 147° |
| 2026-04-26 13:37 | 43.38266 | 20.24880 | 34099 ft | 474 kts | 147° |
| 2026-04-26 13:38 | 43.32790 | 20.29912 | 34084 ft | 474 kts | 147° |
| 2026-04-26 13:38 | 43.27302 | 20.34941 | 34090 ft | 474 kts | 148° |
| 2026-04-26 13:39 | 43.21806 | 20.39958 | 34089 ft | 475 kts | 148° |
| 2026-04-26 13:39 | 43.16297 | 20.44977 | 34093 ft | 475 kts | 148° |
| 2026-04-26 13:40 | 43.10868 | 20.49928 | 34080 ft | 476 kts | 148° |
| 2026-04-26 13:40 | 43.05349 | 20.54938 | 34080 ft | 476 kts | 148° |
| 2026-04-26 13:41 | 42.99626 | 20.59462 | 34083 ft | 474 kts | 159° |
| 2026-04-26 13:41 | 42.93490 | 20.62724 | 34075 ft | 473 kts | 161° |
| 2026-04-26 13:42 | 42.87344 | 20.65968 | 34076 ft | 474 kts | 161° |
| 2026-04-26 13:42 | 42.81195 | 20.69201 | 34070 ft | 474 kts | 161° |
| 2026-04-26 13:43 | 42.75045 | 20.72431 | 34073 ft | 474 kts | 161° |
| 2026-04-26 13:43 | 42.68926 | 20.75646 | 34062 ft | 474 kts | 161° |
| 2026-04-26 13:44 | 42.62773 | 20.78859 | 34074 ft | 474 kts | 161° |
| 2026-04-26 13:44 | 42.56619 | 20.82061 | 34074 ft | 474 kts | 161° |
| 2026-04-26 13:45 | 42.50455 | 20.85279 | 34073 ft | 475 kts | 161° |
| 2026-04-26 13:45 | 42.44286 | 20.88497 | 34063 ft | 475 kts | 161° |
| 2026-04-26 13:46 | 42.38115 | 20.91693 | 34069 ft | 475 kts | 161° |
| 2026-04-26 13:46 | 42.31943 | 20.94892 | 34069 ft | 475 kts | 161° |
| 2026-04-26 13:47 | 42.25766 | 20.98093 | 34369 ft | 475 kts | 161° |
| 2026-04-26 13:47 | 42.22684 | 20.99685 | 34603 ft | 474 kts | 162° |
| 2026-04-26 13:47 | 42.19600 | 21.01273 | 34829 ft | 473 kts | 162° |
| 2026-04-26 13:47 | 42.16529 | 21.02850 | 35061 ft | 473 kts | 162° |
| 2026-04-26 13:48 | 42.13459 | 21.04423 | 35283 ft | 471 kts | 161° |
| 2026-04-26 13:48 | 42.10476 | 21.06251 | 35468 ft | 473 kts | 153° |
| 2026-04-26 13:48 | 42.07661 | 21.08563 | 35593 ft | 474 kts | 150° |
| 2026-04-26 13:48 | 42.04862 | 21.10939 | 35757 ft | 475 kts | 150° |
| 2026-04-26 13:49 | 42.02072 | 21.13309 | 35920 ft | 475 kts | 150° |
| 2026-04-26 13:49 | 41.99328 | 21.15637 | 36021 ft | 476 kts | 150° |
| 2026-04-26 13:49 | 41.96480 | 21.18046 | 36048 ft | 476 kts | 150° |
| 2026-04-26 13:50 | 41.90865 | 21.22765 | 36045 ft | 475 kts | 150° |
| 2026-04-26 13:50 | 41.85291 | 21.27438 | 36036 ft | 476 kts | 150° |
| 2026-04-26 13:51 | 41.79675 | 21.32143 | 36031 ft | 476 kts | 150° |
| 2026-04-26 13:51 | 41.74070 | 21.36837 | 36019 ft | 475 kts | 150° |
| 2026-04-26 13:52 | 41.68464 | 21.41517 | 36016 ft | 474 kts | 150° |
| 2026-04-26 13:52 | 41.62859 | 21.46189 | 36033 ft | 475 kts | 150° |
| 2026-04-26 13:53 | 41.57249 | 21.50858 | 36031 ft | 475 kts | 150° |
| 2026-04-26 13:53 | 41.51640 | 21.55509 | 36027 ft | 475 kts | 150° |
| 2026-04-26 13:54 | 41.46033 | 21.60145 | 36025 ft | 475 kts | 150° |
| 2026-04-26 13:54 | 41.40419 | 21.64785 | 36031 ft | 475 kts | 150° |
| 2026-04-26 13:55 | 41.32949 | 21.70941 | 36018 ft | 474 kts | 151° |
| 2026-04-26 13:56 | 41.23588 | 21.78652 | 36025 ft | 474 kts | 151° |
| 2026-04-26 13:56 | 41.18011 | 21.83216 | 36024 ft | 474 kts | 151° |
| 2026-04-26 13:57 | 41.12348 | 21.87844 | 36023 ft | 475 kts | 151° |
| 2026-04-26 13:57 | 41.06750 | 21.92380 | 36013 ft | 475 kts | 152° |
| 2026-04-26 13:58 | 41.00989 | 21.96644 | 36019 ft | 473 kts | 154° |
| 2026-04-26 13:58 | 40.95159 | 22.00687 | 36026 ft | 473 kts | 155° |
| 2026-04-26 13:59 | 40.89332 | 22.04743 | 36025 ft | 474 kts | 155° |
| 2026-04-26 13:59 | 40.83521 | 22.08871 | 36010 ft | 474 kts | 154° |
| 2026-04-26 14:00 | 40.71923 | 22.17148 | 36014 ft | 474 kts | 154° |
| 2026-04-26 14:01 | 40.66109 | 22.21268 | 36007 ft | 475 kts | 154° |
| 2026-04-26 14:01 | 40.60281 | 22.25376 | 36009 ft | 475 kts | 154° |
| 2026-04-26 14:02 | 40.54451 | 22.29480 | 36014 ft | 475 kts | 154° |
| 2026-04-26 14:02 | 40.48625 | 22.33582 | 36011 ft | 475 kts | 154° |
| 2026-04-26 14:03 | 40.42794 | 22.37679 | 36015 ft | 475 kts | 154° |
| 2026-04-26 14:03 | 40.36961 | 22.41767 | 36011 ft | 475 kts | 155° |
| 2026-04-26 14:04 | 40.31127 | 22.45836 | 36024 ft | 475 kts | 154° |
| 2026-04-26 14:04 | 40.25337 | 22.49879 | 36027 ft | 475 kts | 154° |
| 2026-04-26 14:05 | 40.19503 | 22.53954 | 36023 ft | 475 kts | 154° |
| 2026-04-26 14:05 | 40.13669 | 22.58011 | 36017 ft | 475 kts | 154° |
| 2026-04-26 14:06 | 40.07828 | 22.62056 | 36026 ft | 475 kts | 154° |
| 2026-04-26 14:06 | 40.01993 | 22.66091 | 36029 ft | 475 kts | 154° |
| 2026-04-26 14:07 | 39.96160 | 22.70121 | 36035 ft | 474 kts | 154° |
| 2026-04-26 14:07 | 39.90326 | 22.74152 | 36035 ft | 474 kts | 154° |
| 2026-04-26 14:08 | 39.84498 | 22.78171 | 36034 ft | 474 kts | 154° |
| 2026-04-26 14:08 | 39.78673 | 22.82175 | 36034 ft | 473 kts | 154° |
| 2026-04-26 14:09 | 39.72849 | 22.86166 | 36034 ft | 473 kts | 154° |
| 2026-04-26 14:09 | 39.67020 | 22.90156 | 36034 ft | 473 kts | 154° |
| 2026-04-26 14:10 | 39.61197 | 22.94131 | 36030 ft | 473 kts | 154° |
| 2026-04-26 14:10 | 39.55368 | 22.98106 | 36034 ft | 473 kts | 154° |
| 2026-04-26 14:11 | 39.46633 | 23.04051 | 36033 ft | 473 kts | 154° |
| 2026-04-26 14:11 | 39.40806 | 23.07999 | 36028 ft | 473 kts | 154° |
| 2026-04-26 14:12 | 39.35025 | 23.11920 | 36020 ft | 472 kts | 154° |
| 2026-04-26 14:12 | 39.29200 | 23.15863 | 36016 ft | 473 kts | 154° |
| 2026-04-26 14:13 | 39.20458 | 23.21750 | 36017 ft | 473 kts | 154° |
| 2026-04-26 14:14 | 39.14628 | 23.25677 | 36018 ft | 473 kts | 154° |
| 2026-04-26 14:14 | 39.08798 | 23.29593 | 36018 ft | 472 kts | 154° |
| 2026-04-26 14:15 | 39.02971 | 23.33503 | 36019 ft | 473 kts | 154° |
| 2026-04-26 14:15 | 38.97134 | 23.37404 | 36022 ft | 473 kts | 154° |
| 2026-04-26 14:16 | 38.91293 | 23.41303 | 36024 ft | 473 kts | 153° |
| 2026-04-26 14:16 | 38.85450 | 23.45199 | 36027 ft | 474 kts | 153° |
| 2026-04-26 14:17 | 38.79593 | 23.49096 | 36020 ft | 475 kts | 153° |
| 2026-04-26 14:17 | 38.73725 | 23.52993 | 36020 ft | 475 kts | 153° |
| 2026-04-26 14:18 | 38.68848 | 23.56229 | 36023 ft | 475 kts | 153° |
| 2026-04-26 14:18 | 38.62976 | 23.60120 | 36021 ft | 475 kts | 153° |
| 2026-04-26 14:19 | 38.57106 | 23.63998 | 36022 ft | 475 kts | 153° |
| 2026-04-26 14:19 | 38.51225 | 23.67871 | 36026 ft | 475 kts | 153° |
| 2026-04-26 14:20 | 38.45355 | 23.71734 | 36028 ft | 475 kts | 153° |
| 2026-04-26 14:20 | 38.39481 | 23.75596 | 36038 ft | 475 kts | 152° |
| 2026-04-26 14:21 | 38.33603 | 23.79448 | 36027 ft | 475 kts | 153° |
| 2026-04-26 14:21 | 38.27756 | 23.83275 | 36021 ft | 476 kts | 153° |
| 2026-04-26 14:22 | 38.21976 | 23.87059 | 36013 ft | 476 kts | 153° |
| 2026-04-26 14:22 | 38.16086 | 23.90903 | 36020 ft | 476 kts | 153° |
| 2026-04-26 14:23 | 38.10189 | 23.94738 | 36026 ft | 476 kts | 153° |
| 2026-04-26 14:23 | 38.04288 | 23.98577 | 36032 ft | 476 kts | 153° |
| 2026-04-26 14:24 | 37.98392 | 24.02407 | 36032 ft | 477 kts | 153° |
| 2026-04-26 14:24 | 37.92481 | 24.06233 | 36037 ft | 477 kts | 153° |
| 2026-04-26 14:25 | 37.86568 | 24.10043 | 36040 ft | 477 kts | 153° |
| 2026-04-26 14:25 | 37.80653 | 24.13850 | 36033 ft | 477 kts | 152° |
| 2026-04-26 14:26 | 37.74733 | 24.17661 | 36028 ft | 477 kts | 152° |
| 2026-04-26 14:26 | 37.68817 | 24.21469 | 36027 ft | 477 kts | 152° |
| 2026-04-26 14:27 | 37.62894 | 24.25273 | 36023 ft | 478 kts | 152° |
| 2026-04-26 14:27 | 37.56966 | 24.29070 | 36023 ft | 478 kts | 151° |
| 2026-04-26 14:28 | 37.51441 | 24.33665 | 36021 ft | 476 kts | 143° |
| 2026-04-26 14:28 | 37.46059 | 24.38458 | 36020 ft | 477 kts | 143° |
| 2026-04-26 14:29 | 37.40639 | 24.43267 | 36025 ft | 477 kts | 143° |
| 2026-04-26 14:29 | 37.35219 | 24.48064 | 36020 ft | 477 kts | 143° |
| 2026-04-26 14:30 | 37.29747 | 24.52900 | 36017 ft | 477 kts | 143° |
| 2026-04-26 14:30 | 37.24351 | 24.57668 | 36018 ft | 478 kts | 143° |
| 2026-04-26 14:31 | 37.18906 | 24.62459 | 36022 ft | 478 kts | 143° |
| 2026-04-26 14:31 | 37.13462 | 24.67242 | 36020 ft | 478 kts | 143° |
| 2026-04-26 14:32 | 37.08011 | 24.72032 | 36018 ft | 478 kts | 143° |
| 2026-04-26 14:32 | 37.02565 | 24.76805 | 36013 ft | 478 kts | 143° |
| 2026-04-26 14:33 | 36.97111 | 24.81570 | 36012 ft | 478 kts | 143° |
| 2026-04-26 14:33 | 36.91653 | 24.86336 | 36015 ft | 479 kts | 143° |
| 2026-04-26 14:34 | 36.86188 | 24.91091 | 36012 ft | 479 kts | 143° |
| 2026-04-26 14:34 | 36.80721 | 24.95856 | 36014 ft | 479 kts | 143° |
| 2026-04-26 14:35 | 36.75247 | 25.00614 | 36023 ft | 480 kts | 143° |
| 2026-04-26 14:35 | 36.69765 | 25.05364 | 36035 ft | 480 kts | 143° |
| 2026-04-26 14:36 | 36.64281 | 25.10113 | 36036 ft | 481 kts | 143° |
| 2026-04-26 14:36 | 36.58786 | 25.14862 | 36032 ft | 481 kts | 143° |
| 2026-04-26 14:37 | 36.53287 | 25.19594 | 36030 ft | 481 kts | 143° |
| 2026-04-26 14:37 | 36.47816 | 25.24307 | 36028 ft | 481 kts | 143° |
| 2026-04-26 14:38 | 36.42272 | 25.29063 | 36024 ft | 481 kts | 143° |
| 2026-04-26 14:38 | 36.36768 | 25.33783 | 36026 ft | 481 kts | 143° |
| 2026-04-26 14:39 | 36.31260 | 25.38507 | 36015 ft | 481 kts | 143° |
| 2026-04-26 14:39 | 36.25750 | 25.43223 | 36006 ft | 482 kts | 143° |
| 2026-04-26 14:40 | 36.20278 | 25.47935 | 36017 ft | 483 kts | 143° |
| 2026-04-26 14:40 | 36.14697 | 25.52677 | 36018 ft | 484 kts | 143° |
| 2026-04-26 14:41 | 36.09173 | 25.57339 | 36023 ft | 484 kts | 143° |
| 2026-04-26 14:41 | 36.03622 | 25.62042 | 36027 ft | 484 kts | 143° |
| 2026-04-26 14:42 | 35.98064 | 25.66748 | 36042 ft | 484 kts | 143° |
| 2026-04-26 14:42 | 35.92517 | 25.71441 | 36037 ft | 484 kts | 143° |
| 2026-04-26 14:43 | 35.86961 | 25.76138 | 36030 ft | 484 kts | 143° |
| 2026-04-26 14:43 | 35.81405 | 25.80819 | 36023 ft | 484 kts | 143° |
| 2026-04-26 14:44 | 35.75848 | 25.85491 | 36020 ft | 484 kts | 143° |
| 2026-04-26 14:44 | 35.70293 | 25.90163 | 36003 ft | 484 kts | 143° |
| 2026-04-26 14:45 | 35.64730 | 25.94826 | 36001 ft | 485 kts | 143° |
| 2026-04-26 14:45 | 35.59154 | 25.99484 | 36016 ft | 484 kts | 143° |
| 2026-04-26 14:46 | 35.53585 | 26.04143 | 36013 ft | 484 kts | 143° |
| 2026-04-26 14:46 | 35.48016 | 26.08793 | 36012 ft | 484 kts | 143° |
| 2026-04-26 14:47 | 35.42447 | 26.13439 | 36011 ft | 484 kts | 143° |
| 2026-04-26 14:47 | 35.36910 | 26.18045 | 36005 ft | 484 kts | 143° |
| 2026-04-26 14:48 | 35.31334 | 26.22665 | 36007 ft | 484 kts | 143° |
| 2026-04-26 14:48 | 35.25760 | 26.27282 | 36016 ft | 484 kts | 143° |
| 2026-04-26 14:49 | 35.20185 | 26.31907 | 36011 ft | 484 kts | 143° |
| 2026-04-26 14:49 | 35.14615 | 26.36504 | 35998 ft | 483 kts | 144° |
| 2026-04-26 14:50 | 35.09037 | 26.41090 | 35989 ft | 483 kts | 144° |
| 2026-04-26 14:50 | 35.03465 | 26.45675 | 35984 ft | 483 kts | 144° |
| 2026-04-26 14:51 | 34.97915 | 26.50240 | 35981 ft | 483 kts | 144° |
| 2026-04-26 14:51 | 34.92341 | 26.54818 | 35972 ft | 483 kts | 144° |
| 2026-04-26 14:52 | 34.86769 | 26.59388 | 35987 ft | 483 kts | 145° |
| 2026-04-26 14:52 | 34.81195 | 26.63940 | 35976 ft | 483 kts | 145° |
| 2026-04-26 14:53 | 34.75621 | 26.68489 | 35977 ft | 484 kts | 145° |
| 2026-04-26 14:53 | 34.70020 | 26.73042 | 35978 ft | 483 kts | 145° |
| 2026-04-26 14:54 | 34.64436 | 26.77594 | 35974 ft | 483 kts | 145° |
| 2026-04-26 14:54 | 34.58856 | 26.82132 | 35963 ft | 483 kts | 146° |
| 2026-04-26 14:55 | 34.53295 | 26.86635 | 35960 ft | 484 kts | 146° |
| 2026-04-26 14:55 | 34.47690 | 26.91180 | 35977 ft | 484 kts | 146° |
| 2026-04-26 14:56 | 34.42084 | 26.95707 | 35970 ft | 485 kts | 146° |
| 2026-04-26 14:56 | 34.36462 | 27.00231 | 35966 ft | 485 kts | 146° |
| 2026-04-26 14:57 | 34.30845 | 27.04751 | 35955 ft | 485 kts | 146° |
| 2026-04-26 14:57 | 34.25222 | 27.09279 | 35955 ft | 486 kts | 146° |
| 2026-04-26 14:58 | 34.19587 | 27.13808 | 35957 ft | 486 kts | 147° |
| 2026-04-26 14:58 | 34.13954 | 27.18332 | 35970 ft | 487 kts | 147° |
| 2026-04-26 14:59 | 34.08309 | 27.22844 | 35971 ft | 487 kts | 147° |
| 2026-04-26 14:59 | 34.02655 | 27.27350 | 35965 ft | 487 kts | 147° |
| 2026-04-26 15:00 | 33.97007 | 27.31846 | 35968 ft | 487 kts | 148° |
| 2026-04-26 15:00 | 33.91009 | 27.35549 | 35965 ft | 485 kts | 158° |
| 2026-04-26 15:01 | 33.84839 | 27.38818 | 35964 ft | 485 kts | 158° |
| 2026-04-26 15:01 | 33.78659 | 27.42085 | 35960 ft | 485 kts | 158° |
| 2026-04-26 15:02 | 33.72483 | 27.45362 | 35946 ft | 485 kts | 158° |
| 2026-04-26 15:02 | 33.66339 | 27.48608 | 35962 ft | 486 kts | 159° |
| 2026-04-26 15:03 | 33.60152 | 27.51873 | 35968 ft | 485 kts | 159° |
| 2026-04-26 15:03 | 33.53967 | 27.55119 | 35969 ft | 485 kts | 159° |
| 2026-04-26 15:04 | 33.47792 | 27.58360 | 35947 ft | 485 kts | 159° |
| 2026-04-26 15:04 | 33.41614 | 27.61615 | 35943 ft | 485 kts | 159° |
| 2026-04-26 15:05 | 33.35430 | 27.64864 | 35949 ft | 486 kts | 159° |
| 2026-04-26 15:05 | 33.29236 | 27.68104 | 35952 ft | 486 kts | 159° |
| 2026-04-26 15:06 | 33.23039 | 27.71338 | 35948 ft | 486 kts | 159° |
| 2026-04-26 15:06 | 33.16833 | 27.74569 | 35944 ft | 486 kts | 160° |
| 2026-04-26 15:07 | 33.07530 | 27.79419 | 35957 ft | 487 kts | 160° |
| 2026-04-26 15:07 | 33.02378 | 27.82095 | 35959 ft | 487 kts | 160° |
| 2026-04-26 15:08 | 32.96170 | 27.85325 | 35960 ft | 486 kts | 160° |
| 2026-04-26 15:08 | 32.88961 | 27.89057 | 35942 ft | 486 kts | 161° |
| 2026-04-26 15:09 | 32.82755 | 27.92255 | 35952 ft | 486 kts | 161° |
| 2026-04-26 15:09 | 32.77551 | 27.94940 | 35961 ft | 486 kts | 161° |
| 2026-04-26 15:10 | 32.72395 | 27.97605 | 35956 ft | 486 kts | 161° |
| 2026-04-26 15:10 | 32.65179 | 28.01330 | 35961 ft | 486 kts | 161° |
| 2026-04-26 15:11 | 32.58969 | 28.04518 | 35968 ft | 486 kts | 161° |
| 2026-04-26 15:11 | 32.52768 | 28.07706 | 35972 ft | 486 kts | 161° |
| 2026-04-26 15:12 | 32.46566 | 28.10884 | 35964 ft | 485 kts | 161° |
| 2026-04-26 15:12 | 32.40373 | 28.14049 | 35936 ft | 485 kts | 162° |
| 2026-04-26 15:13 | 32.34179 | 28.17212 | 35934 ft | 486 kts | 162° |
| 2026-04-26 15:13 | 32.27966 | 28.20389 | 35949 ft | 487 kts | 162° |
| 2026-04-26 15:14 | 32.21749 | 28.23566 | 35950 ft | 487 kts | 162° |
| 2026-04-26 15:14 | 32.15519 | 28.26738 | 35960 ft | 488 kts | 162° |
| 2026-04-26 15:15 | 32.09289 | 28.29905 | 35937 ft | 488 kts | 162° |
| 2026-04-26 15:15 | 32.03046 | 28.33076 | 35946 ft | 489 kts | 162° |
| 2026-04-26 15:16 | 31.96805 | 28.36237 | 35954 ft | 489 kts | 162° |
| 2026-04-26 15:16 | 31.90556 | 28.39389 | 35961 ft | 488 kts | 162° |
| 2026-04-26 15:17 | 31.85364 | 28.42009 | 35940 ft | 488 kts | 163° |
| 2026-04-26 15:17 | 31.78075 | 28.45677 | 35956 ft | 488 kts | 163° |
| 2026-04-26 15:18 | 31.71879 | 28.48792 | 35966 ft | 487 kts | 163° |
| 2026-04-26 15:18 | 31.65644 | 28.51920 | 35972 ft | 488 kts | 163° |
| 2026-04-26 15:19 | 31.59400 | 28.55042 | 35977 ft | 488 kts | 163° |
| 2026-04-26 15:19 | 31.53148 | 28.58152 | 35948 ft | 488 kts | 164° |
| 2026-04-26 15:20 | 31.46895 | 28.61258 | 35957 ft | 488 kts | 164° |
| 2026-04-26 15:20 | 31.40637 | 28.64365 | 35964 ft | 489 kts | 164° |
| 2026-04-26 15:21 | 31.34373 | 28.67473 | 35975 ft | 489 kts | 164° |
| 2026-04-26 15:21 | 31.28112 | 28.70573 | 35952 ft | 488 kts | 165° |
| 2026-04-26 15:22 | 31.21853 | 28.73664 | 35974 ft | 488 kts | 165° |
| 2026-04-26 15:22 | 31.15605 | 28.76757 | 35994 ft | 488 kts | 165° |
| 2026-04-26 15:23 | 31.09349 | 28.79843 | 35991 ft | 488 kts | 165° |
| 2026-04-26 15:23 | 31.03104 | 28.82932 | 35993 ft | 487 kts | 165° |
| 2026-04-26 15:24 | 30.96862 | 28.86005 | 35973 ft | 486 kts | 165° |
| 2026-04-26 15:24 | 30.90667 | 28.89045 | 35982 ft | 486 kts | 165° |
| 2026-04-26 15:25 | 30.85446 | 28.91598 | 35991 ft | 485 kts | 165° |
| 2026-04-26 15:25 | 30.78217 | 28.95139 | 35991 ft | 485 kts | 165° |
| 2026-04-26 15:26 | 30.71991 | 28.98186 | 35959 ft | 485 kts | 166° |
| 2026-04-26 15:26 | 30.65782 | 29.01218 | 35980 ft | 484 kts | 166° |
| 2026-04-26 15:27 | 30.59572 | 29.04249 | 35992 ft | 484 kts | 166° |
| 2026-04-26 15:27 | 30.53415 | 29.07264 | 35991 ft | 486 kts | 163° |
| 2026-04-26 15:28 | 30.47690 | 29.11672 | 35987 ft | 506 kts | 143° |
| 2026-04-26 15:28 | 30.42757 | 29.17568 | 35951 ft | 510 kts | 141° |
| 2026-04-26 15:29 | 30.37831 | 29.23507 | 35948 ft | 512 kts | 141° |
| 2026-04-26 15:30 | 30.27904 | 29.35365 | 35947 ft | 514 kts | 141° |
| 2026-04-26 15:30 | 30.22967 | 29.41351 | 35971 ft | 515 kts | 141° |
| 2026-04-26 15:31 | 30.15463 | 29.50257 | 35974 ft | 515 kts | 142° |
| 2026-04-26 15:32 | 30.08780 | 29.58142 | 35922 ft | 516 kts | 142° |
| 2026-04-26 15:32 | 30.02930 | 29.65086 | 35939 ft | 517 kts | 142° |
| 2026-04-26 15:33 | 29.97941 | 29.71007 | 35949 ft | 517 kts | 142° |
| 2026-04-26 15:33 | 29.92918 | 29.76952 | 35955 ft | 518 kts | 142° |
| 2026-04-26 15:34 | 29.87854 | 29.82941 | 35937 ft | 518 kts | 143° |
| 2026-04-26 15:34 | 29.82825 | 29.88872 | 35959 ft | 518 kts | 143° |
| 2026-04-26 15:35 | 29.77782 | 29.94794 | 35968 ft | 517 kts | 143° |
| 2026-04-26 15:35 | 29.72750 | 30.00709 | 35973 ft | 517 kts | 143° |
| 2026-04-26 15:36 | 29.67717 | 30.06624 | 35976 ft | 517 kts | 143° |
| 2026-04-26 15:36 | 29.62686 | 30.12530 | 35962 ft | 517 kts | 143° |
| 2026-04-26 15:37 | 29.57647 | 30.18437 | 35974 ft | 517 kts | 143° |
| 2026-04-26 15:37 | 29.52608 | 30.24321 | 35977 ft | 517 kts | 143° |
| 2026-04-26 15:38 | 29.47558 | 30.30200 | 35980 ft | 517 kts | 143° |
| 2026-04-26 15:38 | 29.42550 | 30.36041 | 35979 ft | 517 kts | 143° |
| 2026-04-26 15:39 | 29.37512 | 30.41929 | 35959 ft | 519 kts | 143° |
| 2026-04-26 15:39 | 29.33302 | 30.46935 | 35962 ft | 521 kts | 142° |
| 2026-04-26 15:40 | 29.27486 | 30.53933 | 35968 ft | 522 kts | 142° |
| 2026-04-26 15:40 | 29.22470 | 30.59931 | 35978 ft | 522 kts | 143° |
| 2026-04-26 15:41 | 29.17431 | 30.65917 | 35982 ft | 522 kts | 143° |
| 2026-04-26 15:41 | 29.12392 | 30.71892 | 35984 ft | 522 kts | 143° |
| 2026-04-26 15:42 | 29.07350 | 30.77861 | 35993 ft | 522 kts | 143° |
| 2026-04-26 15:42 | 29.02308 | 30.83830 | 35958 ft | 522 kts | 142° |
| 2026-04-26 15:43 | 28.97266 | 30.89798 | 35976 ft | 522 kts | 143° |
| 2026-04-26 15:44 | 28.89796 | 30.98601 | 35969 ft | 522 kts | 143° |
| 2026-04-26 15:44 | 28.82222 | 31.07524 | 36013 ft | 521 kts | 143° |
| 2026-04-26 15:45 | 28.74683 | 31.16379 | 36020 ft | 521 kts | 143° |
| 2026-04-26 15:46 | 28.67148 | 31.25289 | 35957 ft | 521 kts | 141° |
| 2026-04-26 15:46 | 28.63888 | 31.29381 | 36025 ft | 523 kts | 140° |
| 2026-04-26 15:47 | 28.55059 | 31.40711 | 36041 ft | 521 kts | 141° |
| 2026-04-26 15:48 | 28.50198 | 31.46818 | 36055 ft | 520 kts | 141° |
| 2026-04-26 15:48 | 28.45325 | 31.52894 | 36040 ft | 520 kts | 141° |
| 2026-04-26 15:49 | 28.40467 | 31.58968 | 36047 ft | 519 kts | 141° |
| 2026-04-26 15:49 | 28.35618 | 31.65046 | 36047 ft | 519 kts | 141° |
| 2026-04-26 15:50 | 28.30768 | 31.71106 | 36000 ft | 519 kts | 141° |
| 2026-04-26 15:50 | 28.25901 | 31.77163 | 36005 ft | 519 kts | 141° |
| 2026-04-26 15:51 | 28.21074 | 31.83168 | 36006 ft | 519 kts | 142° |
| 2026-04-26 15:51 | 28.16208 | 31.89209 | 36024 ft | 519 kts | 142° |
| 2026-04-26 15:52 | 28.11346 | 31.95246 | 36030 ft | 519 kts | 142° |
| 2026-04-26 15:52 | 28.06482 | 32.01271 | 36030 ft | 518 kts | 142° |
| 2026-04-26 15:53 | 28.02107 | 32.07686 | 36002 ft | 535 kts | 127° |
| 2026-04-26 15:53 | 27.98557 | 32.15109 | 36009 ft | 536 kts | 126° |
| 2026-04-26 15:54 | 27.95047 | 32.22417 | 35995 ft | 536 kts | 126° |
| 2026-04-26 15:54 | 27.91474 | 32.29819 | 35977 ft | 536 kts | 126° |
| 2026-04-26 15:55 | 27.87891 | 32.37209 | 35957 ft | 537 kts | 126° |
| 2026-04-26 15:55 | 27.84294 | 32.44619 | 35946 ft | 537 kts | 126° |
| 2026-04-26 15:56 | 27.80762 | 32.51895 | 35940 ft | 537 kts | 126° |
| 2026-04-26 15:56 | 27.78959 | 32.55602 | 35824 ft | 539 kts | 126° |
| 2026-04-26 15:56 | 27.77158 | 32.59302 | 35572 ft | 538 kts | 126° |
| 2026-04-26 15:56 | 27.75344 | 32.63023 | 34574 ft | 546 kts | 126° |
| 2026-04-26 15:57 | 27.73490 | 32.66809 | 33585 ft | 553 kts | 126° |
| 2026-04-26 15:57 | 27.71642 | 32.70596 | 32909 ft | 550 kts | 126° |
| 2026-04-26 15:57 | 27.69806 | 32.74369 | 32114 ft | 548 kts | 125° |
| 2026-04-26 15:57 | 27.69209 | 32.75596 | 31877 ft | 548 kts | 125° |
| 2026-04-26 15:58 | 27.66171 | 32.81831 | 30646 ft | 543 kts | 124° |
| 2026-04-26 15:58 | 27.64354 | 32.85550 | 29883 ft | 541 kts | 124° |
| 2026-04-26 15:58 | 27.62539 | 32.89257 | 29060 ft | 537 kts | 124° |
| 2026-04-26 15:58 | 27.60749 | 32.92915 | 28422 ft | 529 kts | 124° |
| 2026-04-26 15:59 | 27.58987 | 32.96520 | 27783 ft | 522 kts | 124° |
| 2026-04-26 15:59 | 27.57808 | 32.98933 | 27366 ft | 517 kts | 124° |
| 2026-04-26 15:59 | 27.56108 | 33.02403 | 26750 ft | 510 kts | 124° |
| 2026-04-26 15:59 | 27.54400 | 33.05876 | 26131 ft | 503 kts | 124° |
| 2026-04-26 16:00 | 27.52702 | 33.09317 | 25148 ft | 504 kts | 124° |
| 2026-04-26 16:00 | 27.50985 | 33.12776 | 24020 ft | 510 kts | 124° |
| 2026-04-26 16:00 | 27.49251 | 33.16273 | 22931 ft | 511 kts | 124° |
| 2026-04-26 16:00 | 27.47534 | 33.19741 | 21777 ft | 512 kts | 124° |
| 2026-04-26 16:01 | 27.45798 | 33.23247 | 20687 ft | 513 kts | 124° |
| 2026-04-26 16:01 | 27.44080 | 33.26730 | 20137 ft | 501 kts | 123° |
| 2026-04-26 16:01 | 27.42434 | 33.30091 | 19255 ft | 482 kts | 123° |
| 2026-04-26 16:01 | 27.40921 | 33.33177 | 18210 ft | 475 kts | 123° |
| 2026-04-26 16:02 | 27.39320 | 33.36467 | 17507 ft | 471 kts | 121° |
| 2026-04-26 16:02 | 27.38143 | 33.39905 | 16835 ft | 471 kts | 109° |
| 2026-04-26 16:02 | 27.37545 | 33.43522 | 16177 ft | 469 kts | 100° |
| 2026-04-26 16:02 | 27.37253 | 33.45919 | 15740 ft | 466 kts | 100° |
| 2026-04-26 16:03 | 27.36674 | 33.50719 | 14891 ft | 460 kts | 100° |
| 2026-04-26 16:03 | 27.36095 | 33.54223 | 14266 ft | 450 kts | 111° |
| 2026-04-26 16:03 | 27.34787 | 33.57348 | 13683 ft | 437 kts | 128° |
| 2026-04-26 16:03 | 27.32871 | 33.59809 | 13028 ft | 423 kts | 144° |
| 2026-04-26 16:04 | 27.30521 | 33.61566 | 12340 ft | 409 kts | 159° |
| 2026-04-26 16:04 | 27.27876 | 33.62607 | 11622 ft | 399 kts | 169° |
| 2026-04-26 16:04 | 27.25200 | 33.63402 | 10934 ft | 396 kts | 169° |
| 2026-04-26 16:04 | 27.22556 | 33.64182 | 10289 ft | 391 kts | 169° |
| 2026-04-26 16:05 | 27.19941 | 33.64953 | 9635 ft | 387 kts | 169° |
| 2026-04-26 16:05 | 27.17365 | 33.65715 | 9254 ft | 375 kts | 169° |
| 2026-04-26 16:05 | 27.14933 | 33.66441 | 9092 ft | 346 kts | 169° |
| 2026-04-26 16:05 | 27.12704 | 33.67111 | 8947 ft | 318 kts | 169° |
| 2026-04-26 16:06 | 27.10652 | 33.67726 | 8829 ft | 293 kts | 169° |
| 2026-04-26 16:06 | 27.08756 | 33.68292 | 8702 ft | 271 kts | 170° |
| 2026-04-26 16:06 | 27.06994 | 33.68814 | 8565 ft | 252 kts | 170° |
| 2026-04-26 16:06 | 27.05312 | 33.69307 | 8154 ft | 252 kts | 171° |
| 2026-04-26 16:07 | 27.03599 | 33.69803 | 7723 ft | 256 kts | 170° |
| 2026-04-26 16:07 | 27.01866 | 33.70304 | 7272 ft | 259 kts | 169° |
| 2026-04-26 16:07 | 27.00108 | 33.70816 | 6827 ft | 263 kts | 169° |
| 2026-04-26 16:07 | 26.98350 | 33.71331 | 6504 ft | 261 kts | 169° |
| 2026-04-26 16:08 | 26.96688 | 33.71934 | 6432 ft | 252 kts | 156° |
| 2026-04-26 16:08 | 26.95308 | 33.73131 | 6052 ft | 259 kts | 133° |
| 2026-04-26 16:08 | 26.94507 | 33.74985 | 5477 ft | 273 kts | 101° |
| 2026-04-26 16:08 | 26.94595 | 33.77105 | 5020 ft | 275 kts | 71° |
| 2026-04-26 16:09 | 26.95514 | 33.78948 | 4505 ft | 267 kts | 44° |
| 2026-04-26 16:09 | 26.96957 | 33.80154 | 3881 ft | 253 kts | 24° |
| 2026-04-26 16:09 | 26.98487 | 33.81015 | 3492 ft | 241 kts | 22° |
| 2026-04-26 16:09 | 26.99955 | 33.81827 | 3119 ft | 236 kts | 22° |
| 2026-04-26 16:10 | 27.01401 | 33.82622 | 2824 ft | 225 kts | 22° |
| 2026-04-26 16:10 | 27.02813 | 33.83181 | 2642 ft | 208 kts | 5° |
| 2026-04-26 16:10 | 27.04201 | 33.83158 | 2517 ft | 192 kts | 346° |
| 2026-04-26 16:10 | 27.05460 | 33.82787 | 2317 ft | 185 kts | 346° |
| 2026-04-26 16:11 | 27.06699 | 33.82442 | 1957 ft | 186 kts | 346° |
| 2026-04-26 16:11 | 27.07920 | 33.82052 | 1670 ft | 177 kts | 343° |
| 2026-04-26 16:11 | 27.09075 | 33.81693 | 1481 ft | 166 kts | 346° |
| 2026-04-26 16:11 | 27.10124 | 33.81387 | 1343 ft | 148 kts | 345° |
| 2026-04-26 16:12 | 27.11086 | 33.81114 | 1119 ft | 140 kts | 344° |
| 2026-04-26 16:12 | 27.12048 | 33.80854 | 886 ft | 144 kts | 343° |
| 2026-04-26 16:12 | 27.13959 | 33.80255 | 553 ft | 144 kts | 346° |
| 2026-04-26 16:13 | 27.14922 | 33.79980 | 390 ft | 143 kts | 346° |
| 2026-04-26 16:13 | 27.15866 | 33.79698 | 211 ft | 138 kts | 346° |
| 2026-04-26 16:13 | 27.16754 | 33.79432 | 113 ft | 120 kts | 347° |
| 2026-04-26 16:13 | 27.17453 | 33.79228 | 101 ft | 91 kts | 345° |
| 2026-04-26 16:14 | 27.17999 | 33.79066 | 102 ft | 73 kts | 345° |
| 2026-04-26 16:14 | 27.18381 | 33.78949 | 100 ft | 39 kts | 343° |
| 2026-04-26 16:14 | 27.18839 | 33.78815 | 91 ft | 20 kts | 344° |
| 2026-04-26 16:15 | 27.18901 | 33.78879 | 93 ft | 14 kts | 75° |
| 2026-04-26 16:15 | 27.18931 | 33.79004 | 90 ft | 19 kts | 75° |
| 2026-04-26 16:15 | 27.18970 | 33.79166 | 72 ft | 23 kts | 75° |
| 2026-04-26 16:16 | 27.19050 | 33.79496 | 54 ft | 21 kts | 75° |
| 2026-04-26 16:16 | 27.19086 | 33.79653 | 58 ft | 21 kts | 76° |
| 2026-04-26 16:16 | 27.19122 | 33.79808 | 58 ft | 17 kts | 73° |
| 2026-04-26 16:16 | 27.19113 | 33.79897 | 57 ft | 11 kts | 141° |
| 2026-04-26 16:17 | 27.19043 | 33.79921 | 59 ft | 11 kts | 166° |
| 2026-04-26 16:17 | 27.18946 | 33.79947 | 56 ft | 18 kts | 165° |
| 2026-04-26 16:17 | 27.18803 | 33.79991 | 54 ft | 24 kts | 164° |
| 2026-04-26 16:17 | 27.18630 | 33.80040 | 53 ft | 27 kts | 166° |
| 2026-04-26 16:18 | 27.18452 | 33.80096 | 50 ft | 24 kts | 166° |
| 2026-04-26 16:18 | 27.18186 | 33.80186 | 53 ft | 14 kts | 135° |
| 2026-04-26 16:19 | 27.18204 | 33.80349 | 57 ft | 11 kts | 75° |
| 2026-04-26 16:19 | 27.18177 | 33.80424 | 52 ft | 12 kts | 151° |
| 2026-04-26 16:19 | 27.18055 | 33.80462 | 53 ft | 10 kts | 165° |
| 2026-04-26 16:20 | 27.17963 | 33.80489 | 52 ft | 11 kts | 165° |
| 2026-04-26 16:20 | 27.17774 | 33.80546 | 51 ft | 16 kts | 165° |
| 2026-04-26 16:20 | 27.17662 | 33.80579 | 57 ft | 14 kts | 164° |
| 2026-04-26 16:21 | 27.17568 | 33.80608 | 57 ft | 8 kts | 165° |
| 2026-04-26 16:21 | 27.17542 | 33.80646 | 57 ft | 6 kts | 94° |
| 2026-04-26 16:21 | 27.17552 | 33.80693 | 54 ft | 6 kts | 75° |
| 2026-04-26 16:21 | 27.17557 | 33.80714 | 58 ft | 1 kts | 75° |
| 2026-04-26 16:22 | 27.17558 | 33.80717 | 58 ft | 0 kts | 75° |
| 2026-04-26 16:22 | 27.17558 | 33.80718 | 58 ft | 0 kts | 75° |